createdAt,value
2022-10-21T00:00:14.142Z,9.719168
2022-10-21T00:01:14.130Z,9.719179
2022-10-21T00:02:14.128Z,9.719212
2022-10-21T00:03:14.124Z,9.719142
2022-10-21T00:04:14.099Z,9.719065
2022-10-21T00:05:14.107Z,9.719192
2022-10-21T00:06:14.089Z,9.719182
2022-10-21T00:07:14.099Z,9.719243
2022-10-21T00:08:14.080Z,9.719181
2022-10-21T00:09:14.100Z,9.719129
2022-10-21T00:10:14.044Z,9.719157
2022-10-21T00:11:14.045Z,9.719143
2022-10-21T00:12:14.051Z,9.719156
2022-10-21T00:13:14.032Z,9.719222
2022-10-21T00:14:14.010Z,9.719154
2022-10-21T00:15:13.994Z,9.719207
2022-10-21T00:16:13.985Z,9.719100
2022-10-21T00:17:13.974Z,9.719060
2022-10-21T00:18:13.974Z,9.719151
2022-10-21T00:19:13.981Z,9.719082
2022-10-21T00:20:14.016Z,9.719137
2022-10-21T00:21:13.934Z,9.719221
2022-10-21T00:22:13.911Z,9.719204
2022-10-21T00:23:13.921Z,9.719262
2022-10-21T00:24:13.937Z,9.719223
2022-10-21T00:25:13.890Z,9.719298
2022-10-21T00:26:13.879Z,9.719361
2022-10-21T00:27:13.879Z,9.719358
2022-10-21T00:28:13.863Z,9.719373
2022-10-21T00:29:13.897Z,9.719361
2022-10-21T00:30:13.881Z,9.719378
2022-10-21T00:31:13.851Z,9.719443
2022-10-21T00:32:13.823Z,9.719427
2022-10-21T00:33:13.818Z,9.719449
2022-10-21T00:34:13.798Z,9.719478
2022-10-21T00:35:13.827Z,9.719469
2022-10-21T00:36:13.847Z,9.719352
2022-10-21T00:37:13.784Z,9.719246
2022-10-21T00:38:13.802Z,9.719245
2022-10-21T00:39:13.754Z,9.719261
2022-10-21T00:40:13.755Z,9.719378
2022-10-21T00:41:13.756Z,9.719510
2022-10-21T00:42:13.739Z,9.719378
2022-10-21T00:43:13.726Z,9.719359
2022-10-21T00:44:13.695Z,9.719368
2022-10-21T00:45:13.698Z,9.719445
2022-10-21T00:46:13.705Z,9.719276
2022-10-21T00:47:13.696Z,9.719343
2022-10-21T00:48:13.660Z,9.719231
2022-10-21T00:49:13.662Z,9.719224
2022-10-21T00:50:13.651Z,9.719260
2022-10-21T00:51:13.632Z,9.719197
2022-10-21T00:52:13.649Z,9.719219
2022-10-21T00:53:13.632Z,9.719298
2022-10-21T00:54:13.607Z,9.719292
2022-10-21T00:55:13.605Z,9.719296
2022-10-21T00:56:16.507Z,9.719249
2022-10-21T00:57:13.582Z,9.719153
2022-10-21T00:58:13.590Z,9.719020
2022-10-21T00:59:13.560Z,9.718657
2022-10-21T01:00:13.555Z,9.719008
2022-10-21T01:01:17.774Z,9.719687
2022-10-21T01:02:14.538Z,9.719296
2022-10-21T01:03:13.521Z,9.719160
2022-10-21T01:04:13.519Z,9.719160
2022-10-21T01:05:13.502Z,9.719160
2022-10-21T01:06:13.497Z,9.719160
2022-10-21T01:07:13.501Z,9.718726
2022-10-21T01:08:13.477Z,9.718817
2022-10-21T01:09:13.497Z,9.718759
2022-10-21T01:10:13.476Z,9.718773
2022-10-21T01:11:13.443Z,9.718875
2022-10-21T01:12:13.431Z,9.718762
2022-10-21T01:13:13.430Z,9.718767
2022-10-21T01:14:13.414Z,9.718829
2022-10-21T01:15:13.409Z,9.719093
2022-10-21T01:16:13.416Z,9.719206
2022-10-21T01:17:20.910Z,9.719211
2022-10-21T01:18:15.378Z,9.719180
2022-10-21T01:19:13.370Z,9.719147
2022-10-21T01:20:13.373Z,9.719039
2022-10-21T01:21:13.346Z,9.719088
2022-10-21T01:22:13.359Z,9.719004
2022-10-21T01:23:13.331Z,9.719125
2022-10-21T01:24:13.320Z,9.719194
2022-10-21T01:25:13.310Z,9.719206
2022-10-21T01:26:13.306Z,9.719161
2022-10-21T01:27:13.313Z,9.719110
2022-10-21T01:28:13.275Z,9.719106
2022-10-21T01:29:13.266Z,9.719138
2022-10-21T01:30:13.295Z,9.719094
2022-10-21T01:31:13.253Z,9.719089
2022-10-21T01:32:13.244Z,9.719196
2022-10-21T01:33:13.262Z,9.719099
2022-10-21T01:34:13.211Z,9.719075
2022-10-21T01:35:13.211Z,9.719032
2022-10-21T01:36:13.196Z,9.719198
2022-10-21T01:37:13.186Z,9.719108
2022-10-21T01:38:13.201Z,9.719081
2022-10-21T01:39:13.171Z,9.719070
2022-10-21T01:40:13.176Z,9.719053
2022-10-21T01:41:13.158Z,9.719084
2022-10-21T01:42:13.157Z,9.719119
2022-10-21T01:43:13.149Z,9.719083
2022-10-21T01:44:13.139Z,9.719133
2022-10-21T01:45:13.118Z,9.719153
2022-10-21T01:46:13.108Z,9.719102
2022-10-21T01:47:13.097Z,9.719062
2022-10-21T01:48:13.074Z,9.718972
2022-10-21T01:49:14.098Z,9.719091
2022-10-21T01:50:13.063Z,9.719139
2022-10-21T01:51:13.120Z,9.719193
2022-10-21T01:52:13.049Z,9.719166
2022-10-21T01:53:13.032Z,9.719177
2022-10-21T01:54:13.049Z,9.719165
2022-10-21T01:55:13.014Z,9.719132
2022-10-21T01:56:13.016Z,9.719281
2022-10-21T01:57:12.982Z,9.719472
2022-10-21T01:58:13.976Z,9.719303
2022-10-21T01:59:13.989Z,9.719346
2022-10-21T02:00:13.030Z,9.719289
2022-10-21T02:01:13.009Z,9.719361
2022-10-21T02:02:12.957Z,9.719301
2022-10-21T02:03:12.928Z,9.719147
2022-10-21T02:04:12.949Z,9.719223
2022-10-21T02:05:12.931Z,9.719265
2022-10-21T02:06:12.914Z,9.719012
2022-10-21T02:07:12.909Z,9.719332
2022-10-21T02:08:12.887Z,9.719283
2022-10-21T02:09:12.939Z,9.719242
2022-10-21T02:10:12.977Z,9.719307
2022-10-21T02:11:12.868Z,9.719256
2022-10-21T02:12:12.844Z,9.719269
2022-10-21T02:13:12.832Z,9.719120
2022-10-21T02:14:12.837Z,9.719104
2022-10-21T02:15:12.814Z,9.719335
2022-10-21T02:16:12.830Z,9.719270
2022-10-21T02:17:12.796Z,9.719149
2022-10-21T02:18:12.782Z,9.719193
2022-10-21T02:19:12.772Z,9.719243
2022-10-21T02:20:12.765Z,9.719294
2022-10-21T02:21:12.765Z,9.719226
2022-10-21T02:22:12.742Z,9.719226
2022-10-21T02:23:12.729Z,9.719218
2022-10-21T02:24:12.726Z,9.719200
2022-10-21T02:25:12.738Z,9.719181
2022-10-21T02:26:12.699Z,9.719255
2022-10-21T02:27:12.689Z,9.719280
2022-10-21T02:28:12.740Z,9.719302
2022-10-21T02:29:12.681Z,9.719213
2022-10-21T02:30:12.684Z,9.719217
2022-10-21T02:31:12.645Z,9.719245
2022-10-21T02:32:12.672Z,9.719268
2022-10-21T02:33:12.633Z,9.719303
2022-10-21T02:34:12.620Z,9.719222
2022-10-21T02:35:12.619Z,9.719229
2022-10-21T02:36:12.626Z,9.719213
2022-10-21T02:37:12.614Z,9.719258
2022-10-21T02:38:12.586Z,9.719208
2022-10-21T02:39:12.592Z,9.719242
2022-10-21T02:40:12.576Z,9.719235
2022-10-21T02:41:12.568Z,9.719234
2022-10-21T02:42:12.546Z,9.719210
2022-10-21T02:43:12.560Z,9.719177
2022-10-21T02:44:12.534Z,9.719167
2022-10-21T02:45:12.543Z,9.719140
2022-10-21T02:46:12.517Z,9.719179
2022-10-21T02:47:12.523Z,9.719213
2022-10-21T02:48:12.512Z,9.719213
2022-10-21T02:49:44.377Z,9.719225
2022-10-21T02:50:12.488Z,9.719225
2022-10-21T02:51:12.482Z,9.719212
2022-10-21T02:52:12.463Z,9.719204
2022-10-21T02:53:12.442Z,9.719158
2022-10-21T02:54:12.433Z,9.719061
2022-10-21T02:55:12.430Z,9.719314
2022-10-21T02:56:12.424Z,9.719112
2022-10-21T02:57:12.387Z,9.718878
2022-10-21T02:58:12.388Z,9.719072
2022-10-21T02:59:12.381Z,9.719172
2022-10-21T03:00:12.372Z,9.719161
2022-10-21T03:01:12.403Z,9.719245
2022-10-21T03:02:12.347Z,9.719104
2022-10-21T03:03:12.338Z,9.718933
2022-10-21T03:04:12.335Z,9.719045
2022-10-21T03:05:12.355Z,9.719137
2022-10-21T03:06:12.307Z,9.719272
2022-10-21T03:07:12.310Z,9.719303
2022-10-21T03:08:12.295Z,9.719183
2022-10-21T03:09:12.300Z,9.719143
2022-10-21T03:10:12.292Z,9.719144
2022-10-21T03:11:12.259Z,9.719016
2022-10-21T03:12:12.252Z,9.719042
2022-10-21T03:13:12.269Z,9.719138
2022-10-21T03:14:12.232Z,9.719088
2022-10-21T03:15:13.211Z,9.719083
2022-10-21T03:16:12.269Z,9.719153
2022-10-21T03:17:12.208Z,9.719186
2022-10-21T03:18:12.215Z,9.719157
2022-10-21T03:19:12.185Z,9.719172
2022-10-21T03:20:12.181Z,9.719172
2022-10-21T03:21:12.157Z,9.719217
2022-10-21T03:22:12.162Z,9.719170
2022-10-21T03:23:13.147Z,9.719256
2022-10-21T03:24:19.806Z,9.719249
2022-10-21T03:25:13.117Z,9.719242
2022-10-21T03:26:12.107Z,9.719275
2022-10-21T03:27:12.110Z,9.719296
2022-10-21T03:28:12.092Z,9.719249
2022-10-21T03:29:12.106Z,9.719227
2022-10-21T03:30:12.072Z,9.719097
2022-10-21T03:31:12.073Z,9.719070
2022-10-21T03:32:12.050Z,9.719063
2022-10-21T03:33:13.069Z,9.719246
2022-10-21T03:34:12.044Z,9.719281
2022-10-21T03:35:12.064Z,9.719254
2022-10-21T03:36:12.018Z,9.719238
2022-10-21T03:37:12.004Z,9.719215
2022-10-21T03:38:12.011Z,9.719236
2022-10-21T03:39:11.991Z,9.719245
2022-10-21T03:40:12.505Z,9.719317
2022-10-21T03:41:11.983Z,9.719245
2022-10-21T03:42:11.952Z,9.719219
2022-10-21T03:43:11.994Z,9.719219
2022-10-21T03:44:11.956Z,9.719267
2022-10-21T03:45:11.930Z,9.719308
2022-10-21T03:46:11.923Z,9.719222
2022-10-21T03:47:11.911Z,9.719257
2022-10-21T03:48:11.933Z,9.719272
2022-10-21T03:49:18.423Z,9.719243
2022-10-21T03:50:15.100Z,9.719239
2022-10-21T03:51:11.886Z,9.719123
2022-10-21T03:52:11.886Z,9.719109
2022-10-21T03:53:24.354Z,9.719230
2022-10-21T03:54:12.885Z,9.719163
2022-10-21T03:55:11.849Z,9.719077
2022-10-21T03:56:11.830Z,9.719107
2022-10-21T03:57:11.833Z,9.719337
2022-10-21T03:58:11.851Z,9.718990
2022-10-21T03:59:11.808Z,9.719110
2022-10-21T04:01:11.863Z,9.719311
2022-10-21T04:02:11.869Z,9.719185
2022-10-21T04:03:11.757Z,9.719173
2022-10-21T04:04:11.783Z,9.719139
2022-10-21T04:05:11.752Z,9.719308
2022-10-21T04:06:11.740Z,9.719238
2022-10-21T04:07:11.731Z,9.719051
2022-10-21T04:08:11.714Z,9.719309
2022-10-21T04:09:11.776Z,9.719186
2022-10-21T04:10:11.700Z,9.719031
2022-10-21T04:11:11.689Z,9.719055
2022-10-21T04:12:12.718Z,9.718940
2022-10-21T04:13:11.675Z,9.719286
2022-10-21T04:14:14.609Z,9.719335
2022-10-21T04:15:11.673Z,9.719191
2022-10-21T04:16:11.639Z,9.719151
2022-10-21T04:17:11.622Z,9.719203
2022-10-21T04:18:11.632Z,9.719254
2022-10-21T04:19:11.607Z,9.719225
2022-10-21T04:20:11.603Z,9.719233
2022-10-21T04:21:11.646Z,9.719147
2022-10-21T04:22:11.585Z,9.719106
2022-10-21T04:23:11.591Z,9.719193
2022-10-21T04:24:11.562Z,9.719235
2022-10-21T04:25:11.547Z,9.719172
2022-10-21T04:26:11.557Z,9.719171
2022-10-21T04:27:11.527Z,9.719638
2022-10-21T04:28:11.527Z,9.719435
2022-10-21T04:29:11.526Z,9.719316
2022-10-21T04:30:11.521Z,9.719461
2022-10-21T04:31:11.527Z,9.719229
2022-10-21T04:32:11.496Z,9.719368
2022-10-21T04:33:11.478Z,9.719461
2022-10-21T04:34:11.461Z,9.719275
2022-10-21T04:35:12.481Z,9.718997
2022-10-21T04:36:11.452Z,9.718598
2022-10-21T04:37:11.441Z,9.718435
2022-10-21T04:38:11.435Z,9.719236
2022-10-21T04:39:11.444Z,9.718976
2022-10-21T04:40:11.419Z,9.719170
2022-10-21T04:41:11.409Z,9.718851
2022-10-21T04:42:11.383Z,9.719009
2022-10-21T04:43:11.376Z,9.719213
2022-10-21T04:44:11.388Z,9.719179
2022-10-21T04:45:11.384Z,9.719251
2022-10-21T04:46:12.124Z,9.719418
2022-10-21T04:47:12.348Z,9.719329
2022-10-21T04:48:11.338Z,9.719176
2022-10-21T04:49:11.304Z,9.719341
2022-10-21T04:50:11.318Z,9.719248
2022-10-21T04:51:11.298Z,9.719419
2022-10-21T04:52:11.287Z,9.719390
2022-10-21T04:53:11.274Z,9.719272
2022-10-21T04:54:11.267Z,9.719274
2022-10-21T04:55:11.291Z,9.719357
2022-10-21T04:56:11.249Z,9.719357
2022-10-21T04:57:11.238Z,9.719191
2022-10-21T04:58:11.227Z,9.719215
2022-10-21T04:59:11.230Z,9.719157
2022-10-21T05:00:11.236Z,9.719052
2022-10-21T05:01:11.240Z,9.719088
2022-10-21T05:02:11.192Z,9.719099
2022-10-21T05:03:11.205Z,9.719161
2022-10-21T05:04:11.167Z,9.718976
2022-10-21T05:05:11.176Z,9.719063
2022-10-21T05:06:11.151Z,9.719120
2022-10-21T05:07:11.145Z,9.718968
2022-10-21T05:08:11.774Z,9.719000
2022-10-21T05:09:11.241Z,9.719042
2022-10-21T05:10:11.140Z,9.719105
2022-10-21T05:11:11.107Z,9.719191
2022-10-21T05:12:11.091Z,9.719131
2022-10-21T05:13:11.076Z,9.719056
2022-10-21T05:14:11.071Z,9.719221
2022-10-21T05:15:11.087Z,9.718967
2022-10-21T05:16:11.050Z,9.718871
2022-10-21T05:17:17.615Z,9.719121
2022-10-21T05:18:11.044Z,9.719178
2022-10-21T05:19:11.018Z,9.718903
2022-10-21T05:20:11.008Z,9.718823
2022-10-21T05:21:11.025Z,9.718879
2022-10-21T05:22:10.988Z,9.718824
2022-10-21T05:23:10.981Z,9.718955
2022-10-21T05:24:10.982Z,9.719111
2022-10-21T05:25:10.956Z,9.719140
2022-10-21T05:26:11.007Z,9.719052
2022-10-21T05:27:10.940Z,9.719133
2022-10-21T05:28:10.932Z,9.719211
2022-10-21T05:29:10.914Z,9.719270
2022-10-21T05:30:10.913Z,9.719205
2022-10-21T05:31:10.913Z,9.719158
2022-10-21T05:32:10.923Z,9.719072
2022-10-21T05:33:10.893Z,9.718945
2022-10-21T05:34:10.877Z,9.718915
2022-10-21T05:35:10.873Z,9.719105
2022-10-21T05:36:10.865Z,9.718981
2022-10-21T05:37:10.867Z,9.719108
2022-10-21T05:38:10.871Z,9.719146
2022-10-21T05:39:10.860Z,9.719142
2022-10-21T05:40:10.819Z,9.719096
2022-10-21T05:41:10.838Z,9.719005
2022-10-21T05:42:10.799Z,9.719264
2022-10-21T05:43:10.794Z,9.719231
2022-10-21T05:44:10.774Z,9.719077
2022-10-21T05:45:10.778Z,9.719058
2022-10-21T05:46:10.829Z,9.719124
2022-10-21T05:47:10.759Z,9.719033
2022-10-21T05:48:13.488Z,9.719025
2022-10-21T05:49:11.731Z,9.719135
2022-10-21T05:50:10.719Z,9.719062
2022-10-21T05:51:10.707Z,9.719029
2022-10-21T05:52:10.732Z,9.719037
2022-10-21T05:53:10.685Z,9.719202
2022-10-21T05:54:10.684Z,9.719073
2022-10-21T05:55:10.664Z,9.719179
2022-10-21T05:56:10.662Z,9.719051
2022-10-21T05:57:10.677Z,9.719223
2022-10-21T05:58:10.646Z,9.719142
2022-10-21T05:59:10.646Z,9.718990
2022-10-21T06:00:10.622Z,9.719076
2022-10-21T06:01:10.647Z,9.719039
2022-10-21T06:02:10.598Z,9.719028
2022-10-21T06:03:10.596Z,9.718958
2022-10-21T06:04:10.592Z,9.718988
2022-10-21T06:05:10.585Z,9.719072
2022-10-21T06:06:10.557Z,9.719158
2022-10-21T06:07:10.543Z,9.719159
2022-10-21T06:08:10.554Z,9.718821
2022-10-21T06:09:10.690Z,9.719007
2022-10-21T06:10:10.531Z,9.719075
2022-10-21T06:11:10.515Z,9.719124
2022-10-21T06:12:10.503Z,9.718977
2022-10-21T06:13:10.496Z,9.719045
2022-10-21T06:14:10.522Z,9.718951
2022-10-21T06:15:10.485Z,9.718917
2022-10-21T06:16:10.466Z,9.719149
2022-10-21T06:17:10.457Z,9.719111
2022-10-21T06:18:10.455Z,9.719096
2022-10-21T06:19:10.445Z,9.718992
2022-10-21T06:20:10.458Z,9.719092
2022-10-21T06:21:10.461Z,9.718938
2022-10-21T06:22:10.414Z,9.719062
2022-10-21T06:23:10.432Z,9.719228
2022-10-21T06:24:10.391Z,9.719013
2022-10-21T06:25:10.453Z,9.718818
2022-10-21T06:26:10.383Z,9.719013
2022-10-21T06:27:10.363Z,9.719414
2022-10-21T06:28:10.363Z,9.719290
2022-10-21T06:29:10.347Z,9.719378
2022-10-21T06:30:10.361Z,9.719391
2022-10-21T06:31:10.334Z,9.719223
2022-10-21T06:32:10.320Z,9.719136
2022-10-21T06:33:10.322Z,9.719193
2022-10-21T06:34:10.306Z,9.719136
2022-10-21T06:35:10.319Z,9.719211
2022-10-21T06:36:10.285Z,9.719503
2022-10-21T06:37:10.300Z,9.719503
2022-10-21T06:38:10.273Z,9.719397
2022-10-21T06:39:10.272Z,9.719534
2022-10-21T06:40:10.248Z,9.719292
2022-10-21T06:41:13.050Z,9.719452
2022-10-21T06:42:10.277Z,9.719844
2022-10-21T06:43:10.266Z,9.719255
2022-10-21T06:44:10.199Z,9.719253
2022-10-21T06:45:10.197Z,9.719253
2022-10-21T06:46:10.224Z,9.718818
2022-10-21T06:47:10.180Z,9.718974
2022-10-21T06:48:10.166Z,9.718872
2022-10-21T06:49:10.155Z,9.718575
2022-10-21T06:50:10.152Z,9.718951
2022-10-21T06:51:10.209Z,9.718814
2022-10-21T06:52:10.123Z,9.719101
2022-10-21T06:53:10.145Z,9.718787
2022-10-21T06:54:10.114Z,9.719267
2022-10-21T06:55:10.101Z,9.719144
2022-10-21T06:56:10.089Z,9.719081
2022-10-21T06:57:10.101Z,9.719102
2022-10-21T06:58:10.069Z,9.719013
2022-10-21T06:59:10.056Z,9.719114
2022-10-21T07:00:10.058Z,9.719070
2022-10-21T07:01:21.292Z,9.719245
2022-10-21T07:02:11.059Z,9.719047
2022-10-21T07:03:10.017Z,9.719275
2022-10-21T07:04:10.004Z,9.719357
2022-10-21T07:05:10.002Z,9.719195
2022-10-21T07:06:10.014Z,9.718830
2022-10-21T07:07:09.980Z,9.718906
2022-10-21T07:08:12.095Z,9.719055
2022-10-21T07:09:10.045Z,9.719228
2022-10-21T07:10:09.974Z,9.719378
2022-10-21T07:11:09.933Z,9.719214
2022-10-21T07:12:10.003Z,9.719090
2022-10-21T07:13:09.916Z,9.718976
2022-10-21T07:14:09.910Z,9.719000
2022-10-21T07:15:09.902Z,9.718900
2022-10-21T07:16:09.890Z,9.719102
2022-10-21T07:17:09.901Z,9.719034
2022-10-21T07:18:09.896Z,9.718911
2022-10-21T07:19:09.860Z,9.719163
2022-10-21T07:20:09.857Z,9.719171
2022-10-21T07:21:09.853Z,9.719453
2022-10-21T07:22:09.869Z,9.719443
2022-10-21T07:23:09.830Z,9.719326
2022-10-21T07:24:09.837Z,9.719140
2022-10-21T07:25:09.819Z,9.719275
2022-10-21T07:26:09.799Z,9.719226
2022-10-21T07:27:09.824Z,9.719157
2022-10-21T07:28:09.792Z,9.719238
2022-10-21T07:29:09.780Z,9.719218
2022-10-21T07:30:09.773Z,9.718974
2022-10-21T07:31:09.755Z,9.719212
2022-10-21T07:32:09.840Z,9.719073
2022-10-21T07:33:09.770Z,9.719114
2022-10-21T07:34:09.745Z,9.719249
2022-10-21T07:35:09.713Z,9.719232
2022-10-21T07:36:09.700Z,9.719289
2022-10-21T07:37:09.685Z,9.719389
2022-10-21T07:38:09.666Z,9.719637
2022-10-21T07:39:09.771Z,9.719809
2022-10-21T07:40:09.650Z,9.719384
2022-10-21T07:41:09.650Z,9.719466
2022-10-21T07:42:09.676Z,9.719233
2022-10-21T07:43:09.650Z,9.719343
2022-10-21T07:44:09.624Z,9.719161
2022-10-21T07:45:09.606Z,9.719228
2022-10-21T07:46:09.643Z,9.719331
2022-10-21T07:47:09.601Z,9.719317
2022-10-21T07:48:09.584Z,9.719201
2022-10-21T07:49:09.564Z,9.719345
2022-10-21T07:50:09.559Z,9.719349
2022-10-21T07:51:09.569Z,9.719281
2022-10-21T07:52:09.578Z,9.718993
2022-10-21T07:53:12.636Z,9.719273
2022-10-21T07:54:10.580Z,9.719275
2022-10-21T07:55:09.519Z,9.719312
2022-10-21T07:56:09.507Z,9.719268
2022-10-21T07:57:09.490Z,9.719163
2022-10-21T07:58:09.473Z,9.719161
2022-10-21T07:59:12.895Z,9.719300
2022-10-21T08:00:10.471Z,9.718906
2022-10-21T08:01:09.498Z,9.719239
2022-10-21T08:02:09.448Z,9.719311
2022-10-21T08:03:09.427Z,9.719328
2022-10-21T08:04:09.415Z,9.719283
2022-10-21T08:05:09.424Z,9.719318
2022-10-21T08:06:09.398Z,9.719293
2022-10-21T08:07:11.723Z,9.719252
2022-10-21T08:08:09.375Z,9.719207
2022-10-21T08:09:09.406Z,9.719159
2022-10-21T08:10:09.385Z,9.719222
2022-10-21T08:11:09.348Z,9.719253
2022-10-21T08:12:11.632Z,9.719262
2022-10-21T08:13:10.347Z,9.719237
2022-10-21T08:14:09.318Z,9.719240
2022-10-21T08:15:09.300Z,9.719284
2022-10-21T08:16:09.331Z,9.719224
2022-10-21T08:17:09.285Z,9.719245
2022-10-21T08:18:09.275Z,9.719156
2022-10-21T08:19:09.272Z,9.719168
2022-10-21T08:20:09.254Z,9.719205
2022-10-21T08:21:09.266Z,9.719215
2022-10-21T08:22:09.269Z,9.719184
2022-10-21T08:23:09.229Z,9.719170
2022-10-21T08:24:09.228Z,9.719109
2022-10-21T08:25:09.220Z,9.719079
2022-10-21T08:26:09.194Z,9.719185
2022-10-21T08:27:09.206Z,9.719253
2022-10-21T08:28:09.177Z,9.719212
2022-10-21T08:29:09.187Z,9.719189
2022-10-21T08:30:09.163Z,9.719250
2022-10-21T08:31:09.152Z,9.719165
2022-10-21T08:32:09.139Z,9.719258
2022-10-21T08:33:09.148Z,9.719096
2022-10-21T08:34:09.132Z,9.719234
2022-10-21T08:35:09.111Z,9.719136
2022-10-21T08:36:09.114Z,9.719214
2022-10-21T08:37:09.087Z,9.719399
2022-10-21T08:38:09.136Z,9.719177
2022-10-21T08:39:09.084Z,9.719220
2022-10-21T08:40:09.107Z,9.719217
2022-10-21T08:41:09.038Z,9.719218
2022-10-21T08:42:09.037Z,9.719254
2022-10-21T08:43:09.043Z,9.719263
2022-10-21T08:44:09.017Z,9.719296
2022-10-21T08:45:09.012Z,9.719255
2022-10-21T08:46:09.002Z,9.719195
2022-10-21T08:48:09.003Z,9.719218
2022-10-21T08:49:08.969Z,9.719277
2022-10-21T08:50:40.860Z,9.719294
2022-10-21T08:51:08.946Z,9.719266
2022-10-21T08:52:08.952Z,9.719229
2022-10-21T08:53:08.946Z,9.719197
2022-10-21T08:54:08.915Z,9.719221
2022-10-21T08:55:08.926Z,9.719305
2022-10-21T08:56:08.913Z,9.719147
2022-10-21T08:57:08.875Z,9.719313
2022-10-21T08:58:12.604Z,9.719215
2022-10-21T08:59:10.862Z,9.719208
2022-10-21T09:00:08.871Z,9.719146
2022-10-21T09:01:08.848Z,9.719324
2022-10-21T09:02:08.832Z,9.719202
2022-10-21T09:03:08.931Z,9.719172
2022-10-21T09:04:08.809Z,9.719249
2022-10-21T09:05:08.805Z,9.719334
2022-10-21T09:06:08.794Z,9.719425
2022-10-21T09:07:08.793Z,9.719310
2022-10-21T09:08:08.801Z,9.719342
2022-10-21T09:09:08.833Z,9.719460
2022-10-21T09:10:08.746Z,9.719387
2022-10-21T09:11:08.742Z,9.719444
2022-10-21T09:12:08.755Z,9.719454
2022-10-21T09:13:08.729Z,9.719224
2022-10-21T09:14:08.703Z,9.719275
2022-10-21T09:15:11.230Z,9.719361
2022-10-21T09:16:09.697Z,9.719402
2022-10-21T09:17:08.671Z,9.719254
2022-10-21T09:18:08.674Z,9.719343
2022-10-21T09:19:08.739Z,9.719449
2022-10-21T09:20:08.649Z,9.719294
2022-10-21T09:21:08.675Z,9.719255
2022-10-21T09:22:33.335Z,9.718942
2022-10-21T09:23:10.628Z,9.719050
2022-10-21T09:24:08.604Z,9.719333
2022-10-21T09:25:08.605Z,9.719182
2022-10-21T09:26:08.640Z,9.718684
2022-10-21T09:27:08.579Z,9.718780
2022-10-21T09:28:08.582Z,9.719007
2022-10-21T09:29:08.562Z,9.718953
2022-10-21T09:30:08.557Z,9.719046
2022-10-21T09:31:08.557Z,9.718986
2022-10-21T09:32:08.570Z,9.719072
2022-10-21T09:33:08.533Z,9.719260
2022-10-21T09:34:08.519Z,9.719099
2022-10-21T09:35:08.505Z,9.718664
2022-10-21T09:36:08.496Z,9.718930
2022-10-21T09:37:08.512Z,9.719131
2022-10-21T09:38:08.473Z,9.719204
2022-10-21T09:39:08.455Z,9.719156
2022-10-21T09:40:08.481Z,9.719120
2022-10-21T09:41:08.445Z,9.719329
2022-10-21T09:42:12.448Z,9.719102
2022-10-21T09:43:10.420Z,9.718747
2022-10-21T09:44:08.412Z,9.718763
2022-10-21T09:45:08.440Z,9.718747
2022-10-21T09:46:08.414Z,9.719076
2022-10-21T09:47:08.391Z,9.719139
2022-10-21T09:48:08.370Z,9.718868
2022-10-21T09:49:47.227Z,9.719017
2022-10-21T09:50:10.344Z,9.719133
2022-10-21T09:51:08.346Z,9.719051
2022-10-21T09:52:08.329Z,9.719094
2022-10-21T09:53:08.304Z,9.719211
2022-10-21T09:54:08.317Z,9.719022
2022-10-21T09:55:08.305Z,9.719012
2022-10-21T09:56:08.302Z,9.718906
2022-10-21T09:57:08.317Z,9.719118
2022-10-21T09:58:08.297Z,9.719173
2022-10-21T09:59:08.258Z,9.719169
2022-10-21T10:00:11.180Z,9.719081
2022-10-21T10:01:09.236Z,9.719046
2022-10-21T10:02:08.300Z,9.719337
2022-10-21T10:03:08.233Z,9.719239
2022-10-21T10:04:08.199Z,9.719213
2022-10-21T10:05:08.212Z,9.719270
2022-10-21T10:06:08.212Z,9.719171
2022-10-21T10:07:08.192Z,9.719201
2022-10-21T10:08:08.169Z,9.719243
2022-10-21T10:09:08.201Z,9.719308
2022-10-21T10:10:08.159Z,9.719296
2022-10-21T10:11:08.136Z,9.719268
2022-10-21T10:12:08.129Z,9.719180
2022-10-21T10:13:08.137Z,9.719172
2022-10-21T10:14:08.127Z,9.719201
2022-10-21T10:15:08.110Z,9.719087
2022-10-21T10:16:08.084Z,9.718945
2022-10-21T10:17:08.078Z,9.718918
2022-10-21T10:18:08.071Z,9.719061
2022-10-21T10:19:08.064Z,9.719183
2022-10-21T10:20:08.027Z,9.719152
2022-10-21T10:21:09.025Z,9.719034
2022-10-21T10:22:10.311Z,9.718979
2022-10-21T10:23:09.018Z,9.718982
2022-10-21T10:24:08.003Z,9.719195
2022-10-21T10:25:08.002Z,9.719286
2022-10-21T10:26:07.973Z,9.719203
2022-10-21T10:27:07.985Z,9.719299
2022-10-21T10:28:07.957Z,9.719226
2022-10-21T10:29:07.971Z,9.719098
2022-10-21T10:30:07.940Z,9.718843
2022-10-21T10:31:07.932Z,9.719176
2022-10-21T10:32:07.918Z,9.719263
2022-10-21T10:33:07.939Z,9.719330
2022-10-21T10:34:07.889Z,9.719277
2022-10-21T10:35:07.890Z,9.719316
2022-10-21T10:36:09.604Z,9.719243
2022-10-21T10:37:08.858Z,9.719390
2022-10-21T10:38:07.882Z,9.719414
2022-10-21T10:39:07.852Z,9.719303
2022-10-21T10:40:07.845Z,9.719285
2022-10-21T10:41:07.812Z,9.719275
2022-10-21T10:42:07.883Z,9.719476
2022-10-21T10:43:07.799Z,9.719357
2022-10-21T10:44:07.822Z,9.719460
2022-10-21T10:45:07.785Z,9.719345
2022-10-21T10:46:07.779Z,9.719262
2022-10-21T10:47:07.778Z,9.719357
2022-10-21T10:48:07.756Z,9.719224
2022-10-21T10:49:07.771Z,9.719172
2022-10-21T10:50:07.743Z,9.719346
2022-10-21T10:51:07.728Z,9.719398
2022-10-21T10:52:07.722Z,9.719317
2022-10-21T10:53:07.720Z,9.719310
2022-10-21T10:54:07.735Z,9.719331
2022-10-21T10:55:07.691Z,9.719311
2022-10-21T10:56:07.689Z,9.719331
2022-10-21T10:57:07.720Z,9.719343
2022-10-21T10:58:12.530Z,9.719316
2022-10-21T10:59:09.669Z,9.719395
2022-10-21T11:00:07.646Z,9.719264
2022-10-21T11:01:07.681Z,9.719340
2022-10-21T11:02:07.648Z,9.719414
2022-10-21T11:03:07.612Z,9.719426
2022-10-21T11:04:07.615Z,9.719440
2022-10-21T11:05:07.614Z,9.719401
2022-10-21T11:06:07.596Z,9.719408
2022-10-21T11:07:07.569Z,9.719339
2022-10-21T11:08:07.632Z,9.719218
2022-10-21T11:09:07.654Z,9.719350
2022-10-21T11:10:07.569Z,9.719338
2022-10-21T11:11:07.528Z,9.719421
2022-10-21T11:12:07.527Z,9.719308
2022-10-21T11:13:07.515Z,9.719270
2022-10-21T11:14:07.605Z,9.719294
2022-10-21T11:15:07.563Z,9.719386
2022-10-21T11:16:07.489Z,9.719289
2022-10-21T11:17:07.459Z,9.719302
2022-10-21T11:18:23.060Z,9.719404
2022-10-21T11:19:09.484Z,9.719333
2022-10-21T11:20:07.455Z,9.719343
2022-10-21T11:21:07.425Z,9.719347
2022-10-21T11:22:07.410Z,9.719511
2022-10-21T11:24:07.406Z,9.719345
2022-10-21T11:25:07.392Z,9.719296
2022-10-21T11:26:07.397Z,9.719238
2022-10-21T11:27:07.373Z,9.719287
2022-10-21T11:28:07.369Z,9.719318
2022-10-21T11:29:07.363Z,9.719273
2022-10-21T11:30:07.437Z,9.719330
2022-10-21T11:31:07.360Z,9.719319
2022-10-21T11:32:11.462Z,9.719299
2022-10-21T11:33:07.303Z,9.719394
2022-10-21T11:34:11.449Z,9.719419
2022-10-21T11:35:09.296Z,9.719366
2022-10-21T11:36:07.346Z,9.719311
2022-10-21T11:37:07.281Z,9.719333
2022-10-21T11:38:07.271Z,9.719263
2022-10-21T11:39:07.259Z,9.719377
2022-10-21T11:40:07.245Z,9.719274
2022-10-21T11:41:07.261Z,9.719340
2022-10-21T11:42:07.250Z,9.719324
2022-10-21T11:43:07.211Z,9.719349
2022-10-21T11:44:07.226Z,9.719295
2022-10-21T11:45:07.198Z,9.719263
2022-10-21T11:46:07.265Z,9.719236
2022-10-21T11:47:07.180Z,9.719280